Time;durP1;ratioP1;P1;durP2;ratioP2;P2;SDS_P1;SDS_P2;PMS_P1;PMS_P2;Temp;Humidity;BMP_temperature;BMP_pressure;BME280_temperature;BME280_humidity;BME280_pressure;Samples;Min_cycle;Max_cycle;Signal;HPM_P1;HPM_P2
2023/06/21 00:01:30;;;;;;;;;;;;;;;20.99;84.81;96323.84;5107003;28;19960;-70
2023/06/21 00:03:57;;;;;;;;;;;;;;;20.95;84.93;96325.50;5106685;28;19975;-74
2023/06/21 00:06:23;;;;;;;;;;;;;;;20.93;85.68;96330.31;5106650;28;20212;-74
2023/06/21 00:08:49;;;;;;;;;;;;;;;20.91;85.45;96326.34;5106754;28;19948;-74
2023/06/21 00:11:15;;;;;;;;;;;;;;;20.88;85.57;96331.19;5106977;28;19986;-73
2023/06/21 00:13:41;;;;;;;;;;;;;;;20.85;85.21;96321.09;5106872;28;20023;-74
2023/06/21 00:16:07;;;;;;;;;;;;;;;20.82;86.35;96324.34;5106747;28;19968;-74
2023/06/21 00:18:32;;;;;;;;;;;;;;;20.81;86.21;96327.28;5106892;28;20180;-72
2023/06/21 00:20:59;;;;;;;;;;;;;;;20.79;86.81;96332.91;5106807;28;20149;-82
2023/06/21 00:23:25;;;;;;;;;;;;;;;20.79;86.23;96329.44;5106189;28;19938;-80
2023/06/21 00:25:51;;;;;;;;;;;;;;;20.77;86.60;96336.94;5106326;28;19974;-79
2023/06/21 00:28:17;;;;;;;;;;;;;;;20.75;86.94;96339.91;5106172;28;19953;-80
2023/06/21 00:30:43;;;;;;;;;;;;;;;20.73;87.04;96333.28;5106761;28;20024;-80
2023/06/21 00:33:09;;;;;;;;;;;;;;;20.72;86.78;96339.66;5106433;28;19965;-79
2023/06/21 00:35:35;;;;;;;;;;;;;;;20.69;86.68;96338.38;5106122;28;20004;-80
2023/06/21 00:38:00;;;;;;;;;;;;;;;20.66;87.26;96344.25;5104937;28;19953;-76
2023/06/21 00:40:26;;;;;;;;;;;;;;;20.63;87.18;96339.50;5103711;28;19960;-75
2023/06/21 00:42:53;;;;;;;;;;;;;;;20.59;86.79;96341.16;5106419;28;19955;-74
2023/06/21 00:45:20;;;;;;;;;;;;;;;20.57;87.03;96346.72;5106294;28;19964;-74
2023/06/21 00:47:46;;;;;;;;;;;;;;;20.55;87.14;96343.56;5106299;28;19975;-73
2023/06/21 00:50:12;;;;;;;;;;;;;;;20.54;86.96;96351.84;5106228;28;19957;-73
2023/06/21 00:52:45;;;;;;;;;;;;;;;20.50;86.24;96340.16;5106024;28;19951;-73
2023/06/21 00:55:12;;;;;;;;;;;;;;;20.46;87.33;96351.38;5106025;28;19960;-72
2023/06/21 00:57:40;;;;;;;;;;;;;;;20.42;87.77;96354.91;5104834;28;20325;-73
2023/06/21 01:00:06;;;;;;;;;;;;;;;20.39;87.11;96364.25;5087385;28;19964;-72
2023/06/21 01:02:32;;;;;;;;;;;;;;;20.36;87.37;96364.81;5105706;28;19951;-72
2023/06/21 01:04:59;;;;;;;;;;;;;;;20.33;88.04;96368.03;5105539;28;19962;-72
2023/06/21 01:07:40;;;;;;;;;;;;;;;20.30;88.23;96371.25;5104136;28;19973;-72
2023/06/21 01:10:09;;;;;;;;;;;;;;;20.26;88.46;96370.22;5105745;28;19984;-72
2023/06/21 01:12:35;;;;;;;;;;;;;;;20.24;88.25;96383.03;5087476;28;20245;-71
2023/06/21 01:15:02;;;;;;;;;;;;;;;20.22;89.17;96382.50;5105751;28;20032;-73
2023/06/21 01:17:31;;;;;;;;;;;;;;;20.20;88.86;96371.34;5105892;28;19982;-71
2023/06/21 01:19:57;;;;;;;;;;;;;;;20.17;89.45;96378.03;5105334;28;20150;-70
2023/06/21 01:22:34;;;;;;;;;;;;;;;20.16;89.63;96381.78;5105525;28;19957;-71
2023/06/21 01:25:21;;;;;;;;;;;;;;;20.14;89.84;96380.44;5105426;28;19974;-70
2023/06/21 01:27:52;;;;;;;;;;;;;;;20.08;90.26;96380.50;5054503;28;19968;-71
2023/06/21 01:30:18;;;;;;;;;;;;;;;20.05;90.13;96381.09;5104155;28;20142;-71
2023/06/21 01:32:44;;;;;;;;;;;;;;;20.02;90.44;96388.84;5105304;28;19956;-78
2023/06/21 01:35:11;;;;;;;;;;;;;;;20.02;91.24;96396.81;5104124;28;20249;-79
2023/06/21 01:37:36;;;;;;;;;;;;;;;20.00;91.31;96406.94;5103842;28;19962;-77
2023/06/21 01:40:09;;;;;;;;;;;;;;;19.98;91.63;96409.88;5105312;28;19976;-77
2023/06/21 01:42:35;;;;;;;;;;;;;;;19.94;91.13;96408.84;5105323;28;19969;-76
2023/06/21 01:45:01;;;;;;;;;;;;;;;19.92;91.27;96404.88;5105329;28;19970;-76
2023/06/21 01:47:28;;;;;;;;;;;;;;;19.92;91.43;96416.31;5104787;28;19984;-77
2023/06/21 01:49:54;;;;;;;;;;;;;;;19.89;91.97;96418.75;5104564;28;19954;-71
2023/06/21 01:52:20;;;;;;;;;;;;;;;19.88;91.13;96417.94;5086666;28;19960;-73
2023/06/21 01:54:46;;;;;;;;;;;;;;;19.88;91.42;96423.25;5105148;28;19956;-72
2023/06/21 01:57:14;;;;;;;;;;;;;;;19.84;91.48;96416.91;5104947;28;19960;-72
2023/06/21 01:59:41;;;;;;;;;;;;;;;19.82;91.48;96414.53;5103590;28;19954;-72
2023/06/21 02:02:08;;;;;;;;;;;;;;;19.77;91.36;96419.09;5103558;28;19964;-72
2023/06/21 02:04:35;;;;;;;;;;;;;;;19.76;91.96;96433.47;5086517;28;19968;-72
2023/06/21 02:07:02;;;;;;;;;;;;;;;19.72;91.62;96427.91;5104422;28;20220;-72
2023/06/21 02:09:29;;;;;;;;;;;;;;;19.70;92.25;96440.72;5104950;28;19984;-72
2023/06/21 02:11:55;;;;;;;;;;;;;;;19.67;91.82;96433.22;5104349;28;19969;-70
2023/06/21 02:14:21;;;;;;;;;;;;;;;19.63;93.38;96440.16;5103266;28;19953;-71
2023/06/21 02:16:47;;;;;;;;;;;;;;;19.62;93.31;96436.72;5104460;28;20265;-71
2023/06/21 02:19:13;;;;;;;;;;;;;;;19.60;92.69;96435.41;5104398;28;19959;-71
2023/06/21 02:21:39;;;;;;;;;;;;;;;19.58;93.12;96440.22;5104448;28;20036;-70
2023/06/21 02:24:05;;;;;;;;;;;;;;;19.57;93.66;96435.94;5104455;28;19957;-71
2023/06/21 02:26:31;;;;;;;;;;;;;;;19.56;93.49;96435.16;5103411;28;19965;-70
2023/06/21 02:28:57;;;;;;;;;;;;;;;19.56;93.17;96439.69;5104807;28;19954;-70
2023/06/21 02:31:23;;;;;;;;;;;;;;;19.55;92.53;96441.56;5103216;28;19959;-73
2023/06/21 02:33:49;;;;;;;;;;;;;;;19.54;92.78;96434.66;5086365;28;19959;-72
2023/06/21 02:36:15;;;;;;;;;;;;;;;19.54;93.19;96439.97;5104050;28;19992;-72
2023/06/21 02:38:41;;;;;;;;;;;;;;;19.53;94.06;96438.38;5103141;28;19967;-72
2023/06/21 02:41:07;;;;;;;;;;;;;;;19.53;94.01;96433.06;5104591;28;19951;-71
2023/06/21 02:43:33;;;;;;;;;;;;;;;19.53;92.64;96429.59;5102814;28;19971;-71
2023/06/21 02:46:00;;;;;;;;;;;;;;;19.52;92.82;96436.78;5104095;28;19958;-70
2023/06/21 02:48:26;;;;;;;;;;;;;;;19.50;92.95;96444.25;5104504;28;20236;-71
2023/06/21 02:50:52;;;;;;;;;;;;;;;19.50;92.42;96446.91;5104364;28;19953;-72
2023/06/21 02:53:18;;;;;;;;;;;;;;;19.49;93.08;96455.97;5103243;28;19954;-71
2023/06/21 02:55:43;;;;;;;;;;;;;;;19.50;94.13;96456.75;5104478;28;19970;-71
2023/06/21 02:58:09;;;;;;;;;;;;;;;19.47;94.66;96460.75;5104419;28;20053;-71
2023/06/21 03:00:36;;;;;;;;;;;;;;;19.45;94.26;96458.38;5102728;28;19964;-71
2023/06/21 03:03:02;;;;;;;;;;;;;;;19.44;93.79;96456.78;5105403;28;19956;-71
2023/06/21 03:05:35;;;;;;;;;;;;;;;19.43;93.87;96462.38;5108081;28;20152;-76
2023/06/21 03:08:03;;;;;;;;;;;;;;;19.42;93.61;96456.28;5106900;28;20245;-76
2023/06/21 03:10:30;;;;;;;;;;;;;;;19.41;93.75;96465.31;5107731;28;19950;-76
2023/06/21 03:12:56;;;;;;;;;;;;;;;19.41;94.42;96478.59;5107706;28;19961;-76
2023/06/21 03:15:21;;;;;;;;;;;;;;;19.42;94.26;96474.06;5107712;28;19953;-75
2023/06/21 03:17:48;;;;;;;;;;;;;;;19.43;94.71;96494.28;5107845;28;19952;-76
2023/06/21 03:20:14;;;;;;;;;;;;;;;19.43;94.38;96491.63;5107702;28;19959;-76
2023/06/21 03:22:43;;;;;;;;;;;;;;;19.43;93.99;96503.06;5107807;28;20033;-71
2023/06/21 03:25:10;;;;;;;;;;;;;;;19.44;95.25;96519.81;5107454;28;19957;-75
2023/06/21 03:27:36;;;;;;;;;;;;;;;19.45;95.55;96532.06;5107867;28;19962;-75
2023/06/21 03:30:02;;;;;;;;;;;;;;;19.45;95.31;96562.09;5106418;28;19955;-76
2023/06/21 03:32:28;;;;;;;;;;;;;;;19.48;96.83;96598.78;5108102;28;19971;-75
2023/06/21 03:34:54;;;;;;;;;;;;;;;19.46;96.01;96589.47;5106832;28;19976;-76
2023/06/21 03:37:20;;;;;;;;;;;;;;;19.39;95.42;96586.31;5106623;28;19959;-76
2023/06/21 03:39:46;;;;;;;;;;;;;;;19.30;99.00;96595.91;5107753;28;19957;-77
2023/06/21 03:42:12;;;;;;;;;;;;;;;19.23;100.00;96580.22;5107309;28;19991;-73
2023/06/21 03:44:38;;;;;;;;;;;;;;;19.15;100.00;96570.16;5105826;28;19972;-78
2023/06/21 03:47:04;;;;;;;;;;;;;;;19.09;100.00;96545.47;5106348;28;20163;-79
2023/06/21 03:49:30;;;;;;;;;;;;;;;19.05;100.00;96550.50;5105953;28;20329;-79
2023/06/21 03:51:55;;;;;;;;;;;;;;;19.05;100.00;96577.09;5107490;28;19998;-80
2023/06/21 03:54:21;;;;;;;;;;;;;;;19.02;100.00;96567.00;5106916;28;19960;-76
2023/06/21 03:56:47;;;;;;;;;;;;;;;19.03;100.00;96573.91;5105949;28;19963;-78
2023/06/21 03:59:13;;;;;;;;;;;;;;;19.04;100.00;96561.41;5107235;28;19962;-85
2023/06/21 04:01:39;;;;;;;;;;;;;;;19.05;100.00;96545.19;5105747;28;19963;-78
2023/06/21 04:04:05;;;;;;;;;;;;;;;19.08;100.00;96532.44;5107168;28;20272;-72
2023/06/21 04:06:30;;;;;;;;;;;;;;;19.12;100.00;96546.78;5105860;28;20269;-72
2023/06/21 04:08:57;;;;;;;;;;;;;;;19.14;100.00;96539.34;5106792;28;19955;-72
2023/06/21 04:11:22;;;;;;;;;;;;;;;19.17;100.00;96539.59;5105677;28;20149;-72
2023/06/21 04:13:48;;;;;;;;;;;;;;;19.19;100.00;96531.31;5106297;28;19952;-72
2023/06/21 04:16:14;;;;;;;;;;;;;;;19.21;100.00;96539.84;5105415;28;19990;-71
2023/06/21 04:18:40;;;;;;;;;;;;;;;19.19;100.00;96536.66;5106604;28;20122;-70
2023/06/21 04:21:06;;;;;;;;;;;;;;;19.20;100.00;96541.69;5106854;28;19967;-70
2023/06/21 04:23:32;;;;;;;;;;;;;;;19.21;100.00;96538.00;5106556;28;19956;-70
2023/06/21 04:25:58;;;;;;;;;;;;;;;19.20;100.00;96535.59;5105174;28;19967;-70
2023/06/21 04:28:25;;;;;;;;;;;;;;;19.19;100.00;96539.31;5105732;28;19960;-71
2023/06/21 04:30:55;;;;;;;;;;;;;;;19.21;100.00;96543.31;5106533;28;19958;-71
2023/06/21 04:33:21;;;;;;;;;;;;;;;19.25;100.00;96544.34;5105590;28;20138;-71
2023/06/21 04:35:47;;;;;;;;;;;;;;;19.29;100.00;96549.91;5106497;28;19956;-69
2023/06/21 04:38:13;;;;;;;;;;;;;;;19.34;100.00;96554.41;5106255;28;19956;-72
2023/06/21 04:40:39;;;;;;;;;;;;;;;19.38;100.00;96553.63;5104830;28;19956;-73
2023/06/21 04:43:06;;;;;;;;;;;;;;;19.43;100.00;96561.56;5105803;28;19963;-73
2023/06/21 04:45:32;;;;;;;;;;;;;;;19.49;100.00;96562.34;5105953;28;20242;-73
2023/06/21 04:47:58;;;;;;;;;;;;;;;19.54;100.00;96572.97;5106265;28;19962;-73
2023/06/21 04:50:24;;;;;;;;;;;;;;;19.58;100.00;96584.66;5106009;28;19989;-73
2023/06/21 04:52:50;;;;;;;;;;;;;;;19.57;100.00;96585.72;5106070;28;19960;-72
2023/06/21 04:55:17;;;;;;;;;;;;;;;19.57;98.97;96582.25;5105996;28;19979;-73
2023/06/21 04:57:45;;;;;;;;;;;;;;;19.52;100.00;96584.94;5105994;28;19950;-80
2023/06/21 05:00:11;;;;;;;;;;;;;;;19.55;100.00;96601.16;5105909;28;19955;-78
2023/06/21 05:02:38;;;;;;;;;;;;;;;19.57;100.00;96611.53;5106135;28;19943;-79
2023/06/21 05:05:03;;;;;;;;;;;;;;;19.59;100.00;96604.88;5105848;28;19961;-80
2023/06/21 05:07:29;;;;;;;;;;;;;;;19.59;100.00;96601.41;5105893;28;20025;-81
2023/06/21 05:09:55;;;;;;;;;;;;;;;19.52;100.00;96590.28;5105901;28;19960;-81
2023/06/21 05:12:21;;;;;;;;;;;;;;;19.46;100.00;96582.31;5105486;28;19950;-78
2023/06/21 05:14:47;;;;;;;;;;;;;;;19.37;100.00;96613.19;5105666;28;20008;-73
2023/06/21 05:17:15;;;;;;;;;;;;;;;19.35;100.00;96617.97;5105469;28;19949;-71
2023/06/21 05:19:42;;;;;;;;;;;;;;;19.39;100.00;96602.28;5105625;28;19964;-71
2023/06/21 05:22:08;;;;;;;;;;;;;;;19.39;100.00;96600.41;5104388;28;19956;-71
2023/06/21 05:24:34;;;;;;;;;;;;;;;19.47;100.00;96609.72;5104064;28;20298;-71
2023/06/21 05:26:59;;;;;;;;;;;;;;;19.54;100.00;96610.19;5103496;28;19997;-71
2023/06/21 05:29:25;;;;;;;;;;;;;;;19.58;100.00;96605.94;5087010;28;19957;-71
2023/06/21 05:31:51;;;;;;;;;;;;;;;19.62;100.00;96604.31;5105378;28;19953;-74
2023/06/21 05:34:17;;;;;;;;;;;;;;;19.70;100.00;96607.47;5105592;28;19953;-71
2023/06/21 05:36:43;;;;;;;;;;;;;;;19.71;100.00;96593.16;5105045;28;19989;-71
2023/06/21 05:39:09;;;;;;;;;;;;;;;19.71;100.00;96593.16;5104904;28;19953;-71
2023/06/21 05:41:34;;;;;;;;;;;;;;;19.73;100.00;96588.34;5105233;28;19961;-71
2023/06/21 05:44:00;;;;;;;;;;;;;;;19.75;100.00;96578.25;5105299;28;19973;-71
2023/06/21 05:46:26;;;;;;;;;;;;;;;19.77;100.00;96578.75;5104833;28;19960;-71
2023/06/21 05:48:52;;;;;;;;;;;;;;;19.80;100.00;96578.19;5104914;28;19960;-71
2023/06/21 05:51:18;;;;;;;;;;;;;;;19.85;100.00;96583.50;5087021;28;19958;-75
2023/06/21 05:53:44;;;;;;;;;;;;;;;19.98;100.00;96582.13;5104677;28;19952;-70
2023/06/21 05:56:09;;;;;;;;;;;;;;;20.17;100.00;96579.59;5103701;28;19989;-70
2023/06/21 05:58:35;;;;;;;;;;;;;;;20.36;100.00;96575.22;5103725;28;19958;-70
2023/06/21 06:01:02;;;;;;;;;;;;;;;20.61;100.00;96576.13;5103536;28;19995;-70
2023/06/21 06:03:28;;;;;;;;;;;;;;;20.87;100.00;96582.03;5103811;28;19960;-70
2023/06/21 06:05:55;;;;;;;;;;;;;;;21.16;97.03;96575.91;5103500;28;19958;-70
2023/06/21 06:08:21;;;;;;;;;;;;;;;21.40;97.00;96573.25;5104734;28;19962;-71
2023/06/21 06:10:48;;;;;;;;;;;;;;;21.65;97.21;96570.31;5103614;28;19968;-70
2023/06/21 06:13:14;;;;;;;;;;;;;;;21.88;95.71;96568.69;5103650;28;19952;-70
2023/06/21 06:15:39;;;;;;;;;;;;;;;21.93;92.75;96549.13;5104538;28;19955;-70
2023/06/21 06:18:05;;;;;;;;;;;;;;;21.91;94.85;96572.66;5104577;28;19952;-70
2023/06/21 06:20:31;;;;;;;;;;;;;;;21.93;93.63;96575.03;5103525;28;19965;-70
2023/06/21 06:22:57;;;;;;;;;;;;;;;22.04;92.34;96569.25;5104149;28;19948;-70
2023/06/21 06:25:23;;;;;;;;;;;;;;;22.20;91.58;96569.06;5104670;28;19968;-71
2023/06/21 06:27:49;;;;;;;;;;;;;;;22.32;90.44;96573.97;5104788;28;19959;-71
2023/06/21 06:30:14;;;;;;;;;;;;;;;22.44;89.71;96577.78;5103311;28;19955;-75
2023/06/21 06:32:40;;;;;;;;;;;;;;;22.53;89.12;96577.91;5104531;28;19960;-75
2023/06/21 06:35:06;;;;;;;;;;;;;;;22.50;88.10;96579.28;5104521;28;19964;-75
2023/06/21 06:37:32;;;;;;;;;;;;;;;22.59;88.67;96576.75;5106575;28;19960;-75
2023/06/21 06:39:58;;;;;;;;;;;;;;;22.74;86.80;96575.75;5107875;28;20115;-75
2023/06/21 06:42:24;;;;;;;;;;;;;;;22.83;87.55;96581.19;5108176;28;19952;-75
2023/06/21 06:44:51;;;;;;;;;;;;;;;22.94;86.98;96577.25;5108392;28;19956;-77
2023/06/21 06:47:17;;;;;;;;;;;;;;;23.07;85.62;96568.47;5108679;28;20238;-79
2023/06/21 06:49:43;;;;;;;;;;;;;;;23.00;82.68;96559.25;5109179;28;19953;-79
2023/06/21 06:52:10;;;;;;;;;;;;;;;22.99;85.47;96577.16;5107661;28;19969;-79
2023/06/21 06:54:36;;;;;;;;;;;;;;;23.17;84.87;96569.41;5108642;28;19952;-79
2023/06/21 06:57:01;;;;;;;;;;;;;;;23.45;86.10;96586.25;5107099;28;19961;-78
2023/06/21 06:59:27;;;;;;;;;;;;;;;23.51;79.49;96542.25;5108443;28;19955;-78
2023/06/21 07:01:53;;;;;;;;;;;;;;;23.43;79.67;96537.59;5107291;28;19990;-78
2023/06/21 07:04:19;;;;;;;;;;;;;;;23.30;81.17;96539.97;5108306;28;19961;-69
2023/06/21 07:06:45;;;;;;;;;;;;;;;23.30;82.13;96547.19;5107023;28;19975;-71
2023/06/21 07:09:11;;;;;;;;;;;;;;;23.46;81.35;96535.09;5089580;28;19997;-71
2023/06/21 07:11:36;;;;;;;;;;;;;;;23.70;79.80;96534.09;5106586;28;20022;-71
2023/06/21 07:14:02;;;;;;;;;;;;;;;23.89;81.61;96555.41;5107849;28;19967;-71
2023/06/21 07:16:34;;;;;;;;;;;;;;;23.94;80.31;96551.81;5107767;28;20242;-71
2023/06/21 07:19:02;;;;;;;;;;;;;;;23.81;78.69;96550.75;5107831;28;19966;-71
2023/06/21 07:21:29;;;;;;;;;;;;;;;23.58;78.65;96544.50;5107986;28;19953;-71
2023/06/21 07:23:54;;;;;;;;;;;;;;;23.44;78.89;96545.31;5106581;28;19964;-71
2023/06/21 07:26:20;;;;;;;;;;;;;;;23.39;79.09;96548.13;5090261;28;19963;-70
2023/06/21 07:28:46;;;;;;;;;;;;;;;23.35;79.39;96552.47;5106393;28;19960;-70
2023/06/21 07:31:12;;;;;;;;;;;;;;;23.32;79.32;96558.41;5089918;28;19959;-70
2023/06/21 07:33:38;;;;;;;;;;;;;;;23.25;77.33;96534.72;5106749;28;20257;-70
2023/06/21 07:36:05;;;;;;;;;;;;;;;23.16;77.67;96538.38;5107870;28;19987;-70
2023/06/21 07:38:31;;;;;;;;;;;;;;;23.05;79.48;96548.47;5106106;28;19960;-70
2023/06/21 07:40:57;;;;;;;;;;;;;;;23.00;78.93;96549.34;5107601;28;19999;-71
2023/06/21 07:43:22;;;;;;;;;;;;;;;23.02;80.44;96570.47;5105954;28;20208;-76
2023/06/21 07:45:48;;;;;;;;;;;;;;;23.20;81.04;96569.59;5107241;28;20031;-76
2023/06/21 07:48:14;;;;;;;;;;;;;;;23.45;79.05;96551.47;5107108;28;19956;-75
2023/06/21 07:50:40;;;;;;;;;;;;;;;23.55;77.64;96558.50;5107037;28;19965;-75
2023/06/21 07:53:06;;;;;;;;;;;;;;;23.55;76.55;96547.78;5106949;28;19998;-75
2023/06/21 07:55:32;;;;;;;;;;;;;;;23.53;73.73;96534.69;5106003;28;19967;-76
2023/06/21 07:57:57;;;;;;;;;;;;;;;23.44;77.20;96569.41;5107359;28;20002;-77
2023/06/21 08:00:23;;;;;;;;;;;;;;;23.38;78.47;96581.31;5105608;28;20021;-72
2023/06/21 08:02:51;;;;;;;;;;;;;;;23.34;78.48;96582.19;5089297;28;19959;-71
2023/06/21 08:05:17;;;;;;;;;;;;;;;23.26;79.36;96591.69;5088521;28;20147;-70
2023/06/21 08:07:43;;;;;;;;;;;;;;;23.20;80.67;96615.06;5088513;28;19972;-71
2023/06/21 08:10:09;;;;;;;;;;;;;;;23.15;79.53;96612.50;5105881;28;19968;-71
2023/06/21 08:12:35;;;;;;;;;;;;;;;23.06;79.37;96616.94;5106643;28;19959;-71
2023/06/21 08:15:01;;;;;;;;;;;;;;;22.99;80.01;96619.94;5105219;28;19970;-71
2023/06/21 08:17:27;;;;;;;;;;;;;;;22.92;81.15;96645.50;5106522;28;19955;-76
2023/06/21 08:19:53;;;;;;;;;;;;;;;22.85;80.92;96659.25;5106828;28;19959;-71
2023/06/21 08:22:20;;;;;;;;;;;;;;;22.76;84.76;96687.72;5106716;28;19954;-70
2023/06/21 08:24:47;;;;;;;;;;;;;;;22.63;87.97;96715.97;5106211;28;19965;-70
2023/06/21 08:27:14;;;;;;;;;;;;;;;22.47;86.62;96713.50;5106551;28;19964;-70
2023/06/21 08:29:40;;;;;;;;;;;;;;;22.30;89.27;96726.56;5106361;28;19948;-71
2023/06/21 08:32:06;;;;;;;;;;;;;;;22.15;90.89;96724.81;5106379;28;19960;-71
2023/06/21 08:34:32;;;;;;;;;;;;;;;22.00;91.18;96730.34;5106529;28;19959;-74
2023/06/21 08:36:58;;;;;;;;;;;;;;;21.78;92.62;96739.66;5105503;28;19962;-73
2023/06/21 08:39:24;;;;;;;;;;;;;;;21.55;92.90;96749.22;5106306;28;19967;-75
2023/06/21 08:41:51;;;;;;;;;;;;;;;21.34;95.03;96735.25;5106061;28;19992;-77
2023/06/21 08:44:17;;;;;;;;;;;;;;;21.20;98.25;96729.75;5106289;28;19963;-75
2023/06/21 08:46:46;;;;;;;;;;;;;;;21.09;98.02;96698.91;5104889;28;20167;-77
2023/06/21 08:49:16;;;;;;;;;;;;;;;21.01;98.29;96660.28;5106048;28;20105;-77
2023/06/21 08:51:43;;;;;;;;;;;;;;;21.02;99.93;96653.06;5106245;28;20009;-77
2023/06/21 08:54:10;;;;;;;;;;;;;;;21.02;98.91;96651.22;5104405;28;19963;-73
2023/06/21 08:56:40;;;;;;;;;;;;;;;21.02;99.03;96642.41;5104641;28;19960;-71
2023/06/21 08:59:08;;;;;;;;;;;;;;;20.92;99.63;96648.66;5104916;28;19967;-72
2023/06/21 09:02:07;;;;;;;;;;;;;;;20.87;100.00;96660.16;5087044;28;19965;-72
2023/06/21 09:04:37;;;;;;;;;;;;;;;20.84;100.00;96652.69;5044067;28;19966;-71
2023/06/21 09:07:04;;;;;;;;;;;;;;;20.79;100.00;96644.75;5105914;28;20264;-71
2023/06/21 09:09:30;;;;;;;;;;;;;;;20.79;100.00;96649.25;5105604;28;19958;-72
2023/06/21 09:11:55;;;;;;;;;;;;;;;20.78;100.00;96643.16;5105791;28;20024;-75
2023/06/21 09:14:22;;;;;;;;;;;;;;;20.80;100.00;96635.66;5105774;28;19965;-70
2023/06/21 09:16:49;;;;;;;;;;;;;;;20.78;100.00;96611.16;5086955;28;19958;-72
2023/06/21 09:19:15;;;;;;;;;;;;;;;20.73;100.00;96594.44;5087832;28;19941;-73
2023/06/21 09:21:51;;;;;;;;;;;;;;;20.64;100.00;96565.72;5102067;28;20246;-72
2023/06/21 09:24:17;;;;;;;;;;;;;;;20.54;100.00;96607.59;5100506;28;20080;-71
2023/06/21 09:26:43;;;;;;;;;;;;;;;20.48;100.00;96612.16;5084340;28;19978;-71
2023/06/21 09:29:09;;;;;;;;;;;;;;;20.48;100.00;96626.28;5101327;28;20014;-71
2023/06/21 09:31:35;;;;;;;;;;;;;;;20.45;100.00;96640.16;5100693;28;20251;-70
2023/06/21 09:34:00;;;;;;;;;;;;;;;20.39;100.00;96649.25;5101763;28;19936;-72
2023/06/21 09:36:27;;;;;;;;;;;;;;;20.38;100.00;96654.84;5101650;28;19946;-73
2023/06/21 09:39:05;;;;;;;;;;;;;;;20.36;100.00;96659.66;5101698;28;19946;-72
2023/06/21 09:41:31;;;;;;;;;;;;;;;20.34;100.00;96672.44;5101810;28;19965;-72
2023/06/21 09:43:58;;;;;;;;;;;;;;;20.31;100.00;96681.00;5100771;28;19938;-72
2023/06/21 09:46:24;;;;;;;;;;;;;;;20.28;100.00;96693.78;5117583;28;19953;-73
2023/06/21 09:48:50;;;;;;;;;;;;;;;20.26;100.00;96717.25;5101197;28;20224;-76
2023/06/21 09:51:18;;;;;;;;;;;;;;;20.20;100.00;96723.66;5101189;28;19945;-72
2023/06/21 09:53:45;;;;;;;;;;;;;;;20.16;100.00;96746.56;5117530;28;19946;-76
2023/06/21 09:56:18;;;;;;;;;;;;;;;20.15;100.00;96747.63;5101517;28;19931;-76
2023/06/21 09:58:45;;;;;;;;;;;;;;;20.17;100.00;96748.16;5100563;28;20111;-76
2023/06/21 10:01:17;;;;;;;;;;;;;;;20.15;100.00;96758.28;5100765;28;19984;-76
2023/06/21 10:03:43;;;;;;;;;;;;;;;20.12;100.00;96758.84;5100540;28;19945;-76
2023/06/21 10:06:16;;;;;;;;;;;;;;;20.10;100.00;96752.97;5100438;28;19953;-76
2023/06/21 10:08:42;;;;;;;;;;;;;;;20.10;100.00;96745.00;5101577;28;19934;-68
2023/06/21 10:11:08;;;;;;;;;;;;;;;20.13;100.00;96744.44;5101036;28;20113;-71
2023/06/21 10:13:37;;;;;;;;;;;;;;;20.16;100.00;96740.44;5101534;28;20104;-72
2023/06/21 10:16:03;;;;;;;;;;;;;;;20.18;100.00;96741.78;5100127;28;19938;-72
2023/06/21 10:18:29;;;;;;;;;;;;;;;20.17;100.00;96742.03;5101398;28;20006;-72
2023/06/21 10:20:56;;;;;;;;;;;;;;;20.18;100.00;96748.94;5100526;28;19959;-72
2023/06/21 10:23:26;;;;;;;;;;;;;;;20.20;100.00;96752.94;5100531;28;19950;-73
2023/06/21 10:25:53;;;;;;;;;;;;;;;20.25;100.00;96754.78;5101267;28;19948;-75
2023/06/21 10:28:21;;;;;;;;;;;;;;;20.27;100.00;96755.31;5100490;28;19942;-75
2023/06/21 10:30:49;;;;;;;;;;;;;;;20.30;100.00;96762.75;5100815;28;19940;-76
2023/06/21 10:33:16;;;;;;;;;;;;;;;20.29;100.00;96755.84;5085146;28;19964;-74
2023/06/21 10:35:45;;;;;;;;;;;;;;;20.27;100.00;96760.66;5102586;28;19934;-75
2023/06/21 10:38:24;;;;;;;;;;;;;;;20.21;100.00;96767.06;5085572;28;19945;-75
2023/06/21 10:40:52;;;;;;;;;;;;;;;20.20;100.00;96770.78;5102991;28;19977;-76
2023/06/21 10:43:19;;;;;;;;;;;;;;;20.21;100.00;96757.19;5087191;28;19943;-73
2023/06/21 10:45:45;;;;;;;;;;;;;;;20.27;100.00;96764.09;5087122;28;19932;-73
2023/06/21 10:48:11;;;;;;;;;;;;;;;20.29;100.00;96761.16;5086594;28;19950;-70
2023/06/21 10:50:38;;;;;;;;;;;;;;;20.30;100.00;96767.28;5086546;28;20001;-70
2023/06/21 10:53:05;;;;;;;;;;;;;;;20.39;100.00;96761.13;5087017;28;19941;-71
2023/06/21 10:55:31;;;;;;;;;;;;;;;20.55;100.00;96758.38;5087027;28;19945;-71
2023/06/21 10:57:57;;;;;;;;;;;;;;;20.69;100.00;96754.09;5085213;28;19941;-71
2023/06/21 11:00:24;;;;;;;;;;;;;;;20.82;100.00;96758.00;5086257;28;19957;-71
2023/06/21 11:02:50;;;;;;;;;;;;;;;20.93;100.00;96750.75;5086354;28;19942;-68
2023/06/21 11:05:18;;;;;;;;;;;;;;;20.95;100.00;96756.59;5085207;28;19939;-68
2023/06/21 11:07:52;;;;;;;;;;;;;;;21.02;100.00;96752.56;5087010;28;19946;-68
2023/06/21 11:10:42;;;;;;;;;;;;;;;21.27;100.00;96748.91;5086230;28;19934;-69
2023/06/21 11:13:09;;;;;;;;;;;;;;;21.62;100.00;96748.91;5101801;28;19947;-69
2023/06/21 11:15:37;;;;;;;;;;;;;;;21.89;100.00;96751.81;5086077;28;19936;-70
2023/06/21 11:18:05;;;;;;;;;;;;;;;22.24;100.00;96744.53;5085702;28;20125;-70
2023/06/21 11:20:42;;;;;;;;;;;;;;;22.50;100.00;96738.88;5084989;28;19974;-77
2023/06/21 11:23:08;;;;;;;;;;;;;;;22.77;100.00;96740.13;5085645;28;20226;-74
2023/06/21 11:25:38;;;;;;;;;;;;;;;23.04;100.00;96740.28;5085816;28;19937;-70
2023/06/21 11:28:19;;;;;;;;;;;;;;;23.30;100.00;96737.19;5085402;28;19939;-70
2023/06/21 11:31:03;;;;;;;;;;;;;;;23.54;100.00;96738.94;5085678;28;19939;-71
2023/06/21 11:33:30;;;;;;;;;;;;;;;23.58;93.91;96730.06;5085862;28;19937;-71
2023/06/21 11:36:03;;;;;;;;;;;;;;;23.63;94.71;96734.50;5085289;28;19943;-71
2023/06/21 11:38:29;;;;;;;;;;;;;;;23.67;93.88;96730.94;5084441;28;19943;-71
2023/06/21 11:40:56;;;;;;;;;;;;;;;23.84;95.47;96734.97;5084307;28;19966;-78
2023/06/21 11:43:22;;;;;;;;;;;;;;;23.90;91.04;96725.75;5084751;28;19934;-89
2023/06/21 11:46:00;;;;;;;;;;;;;;;23.75;90.90;96720.63;5085071;28;19975;-84
2023/06/21 11:48:26;;;;;;;;;;;;;;;23.74;93.82;96735.13;5086381;28;19933;-90
2023/06/21 11:50:52;;;;;;;;;;;;;;;23.93;96.83;96735.84;5085980;28;19944;-89
2023/06/21 11:53:23;;;;;;;;;;;;;;;24.02;90.23;96717.19;5084691;28;19941;-91
2023/06/21 11:55:49;;;;;;;;;;;;;;;24.25;90.96;96716.22;5090907;28;19935;-93
2023/06/21 11:58:15;;;;;;;;;;;;;;;24.46;87.86;96705.88;5103334;28;19966;-70
2023/06/21 12:00:41;;;;;;;;;;;;;;;24.51;87.91;96713.03;5085905;28;19968;-73
2023/06/21 12:03:12;;;;;;;;;;;;;;;24.44;86.07;96713.41;5067807;28;19958;-73
2023/06/21 12:05:44;;;;;;;;;;;;;;;24.48;88.96;96730.50;5100885;28;20233;-73
2023/06/21 12:08:10;;;;;;;;;;;;;;;24.66;86.62;96711.91;5084931;28;19987;-73
2023/06/21 12:10:36;;;;;;;;;;;;;;;24.85;86.85;96709.84;5085223;28;19937;-73
2023/06/21 12:13:10;;;;;;;;;;;;;;;25.15;85.67;96717.47;5084953;28;19950;-73
2023/06/21 12:15:36;;;;;;;;;;;;;;;25.20;83.20;96710.13;5085401;28;19931;-72
2023/06/21 12:18:05;;;;;;;;;;;;;;;25.19;83.18;96705.03;5084863;28;19946;-85
2023/06/21 12:20:31;;;;;;;;;;;;;;;25.30;86.30;96723.31;5085336;28;19976;-80
2023/06/21 12:22:57;;;;;;;;;;;;;;;25.51;85.71;96712.84;5101151;28;20116;-80
2023/06/21 12:25:23;;;;;;;;;;;;;;;25.68;84.62;96698.72;5101054;28;19940;-80
2023/06/21 12:27:58;;;;;;;;;;;;;;;25.82;78.55;96666.38;5085204;28;19943;-81
2023/06/21 12:30:27;;;;;;;;;;;;;;;25.72;79.44;96674.69;5085120;28;19940;-80
2023/06/21 12:32:55;;;;;;;;;;;;;;;25.75;79.21;96674.09;5066740;28;19968;-81
2023/06/21 12:35:21;;;;;;;;;;;;;;;25.64;78.30;96675.44;5083397;28;19940;-72
2023/06/21 12:37:47;;;;;;;;;;;;;;;25.62;82.59;96705.31;5084550;28;19944;-72
2023/06/21 12:40:19;;;;;;;;;;;;;;;25.69;82.35;96694.91;5083255;28;19938;-72
2023/06/21 12:42:45;;;;;;;;;;;;;;;25.79;80.84;96676.97;5084027;28;19982;-72